North Madison, Ohio
Current Conditions -  °F | °C
As of 5:53 AM on Friday 31 Oct 2014 (Local Time) from KHZY Reporting Station
Overcast Overcast  
Wind Chill: 38°   Ceiling: 5000
Heat Index: 41°   Visibility: 10mi
Dew Point: 38°   Wind: 5mph
Humidity: 89%   Direction: 190°S
Pressure: 29.96"   Gusts: NA
Location:  41.7879°N, 81.0546°W
Report Text: KHZY 310953Z AUTO 19004KT 10SM OVC050 05/03 A2996 RMK AO2 SLP150 T00500033
Loading
Personal Weather Stations






























Interactive Weather Map
Tropical Storm Tracking
New forecast layout! Learn more

10-Day Weather Forecast

Advertisements
Track Severe Weather on mobile